KSHV/SHV METAR and TAF weather

Enter ICAO airport designator
Station Type Date Time Source
KSHV METAR 2024/06/15 22:56 UTC NOAA

KSHV 152256Z 16006KT 10SM FEW050 35/21 A2987 RMK SLPNO


Station Type Date Time Source
KSHV Decoded METAR 2024/06/15 22:56 UTC NOAA

SHREVEPORT REGIONAL AIRPORT, LA, United States (KSHV) 32-27N 93-50W 80M
Jun 15, 2024 - 06:56 PM EDT / 2024.06.15 2256 UTC
Wind: from the SSE (160 degrees) at 7 MPH (6 KT):0
Visibility: 10 mile(s):0
Sky conditions: mostly clear
Temperature: 95 F (35 C)
Heat index: 101.3 F (38.5 C):1
Dew Point: 69 F (21 C)
Relative Humidity: 44%
Pressure (altimeter): 29.87 in. Hg (1011 hPa)
ob: KSHV 152256Z 16006KT 10SM FEW050 35/21 A2987 RMK SLPNO
cycle: 23

Station Type Date Time Source
KSHV TAF 2024/06/15 18:30 UTC NOAA